Rangeley, Maine
Current Conditions -  °F | °C
As of 7:52 PM on Wednesday 22 Oct 2014 (Local Time) from KBML Reporting Station
Light Rain Light Rain  
Wind Chill:   Ceiling: 1700
Heat Index:   Visibility: 10mi
Dew Point:   Wind: 10mph
Humidity: 89%   Direction: 360°N
Pressure: 30.12"   Gusts: 17mph
Location:  44.97°N, 70.65°W
Report Text: KBML 222352Z AUTO 36009G15KT 10SM -RA OVC017 08/06 A3012 RMK AO2 RAE37B52 SLP206 P0000 60011 T00780061 10106 20078 57010
Loading
Personal Weather Stations






























Interactive Weather Map
Tropical Storm Tracking
New forecast layout! Learn more

10-Day Weather Forecast

Advertisements
Track Severe Weather on mobile